Time;durP1;ratioP1;P1;durP2;ratioP2;P2;SDS_P1;SDS_P2;PMS_P1;PMS_P2;Temp;Humidity;BMP_temperature;BMP_pressure;BME280_temperature;BME280_humidity;BME280_pressure;Samples;Min_cycle;Max_cycle;Signal;HPM_P1;HPM_P2
2021/11/15 00:01:13;;;;;;;27.67;24.30;;;8.30;99.90;;;;;;5026879;28;20210;-78
2021/11/15 00:03:40;;;;;;;28.63;25.53;;;8.30;99.90;;;;;;5022067;28;20403;-79
2021/11/15 00:06:07;;;;;;;28.97;24.83;;;8.30;99.90;;;;;;5029112;28;20206;-79
2021/11/15 00:08:34;;;;;;;27.20;24.37;;;8.30;99.90;;;;;;5020508;28;20195;-79
2021/11/15 00:11:01;;;;;;;27.13;23.90;;;8.30;99.90;;;;;;5024453;28;20201;-77
2021/11/15 00:13:29;;;;;;;30.87;26.87;;;8.30;99.90;;;;;;5025312;28;20303;-79
2021/11/15 00:15:56;;;;;;;29.37;26.30;;;8.30;99.90;;;;;;5020497;28;20215;-79
2021/11/15 00:18:23;;;;;;;29.13;25.93;;;8.30;99.90;;;;;;5022873;28;20200;-79
2021/11/15 00:20:50;;;;;;;27.67;24.73;;;8.30;99.90;;;;;;5022725;28;20574;-79
2021/11/15 00:23:16;;;;;;;29.30;24.23;;;8.30;99.90;;;;;;5022902;28;20219;-79
2021/11/15 00:25:43;;;;;;;29.63;26.53;;;8.30;99.90;;;;;;5025056;28;20259;-78
2021/11/15 00:28:10;;;;;;;28.90;25.77;;;8.20;99.90;;;;;;5022674;28;20264;-79
2021/11/15 00:30:38;;;;;;;29.27;25.30;;;8.20;99.90;;;;;;5022544;28;20199;-79
2021/11/15 00:33:05;;;;;;;27.63;24.73;;;8.20;99.90;;;;;;5017332;28;20219;-79
2021/11/15 00:35:32;;;;;;;31.03;25.37;;;8.20;99.90;;;;;;5023144;28;20214;-79
2021/11/15 00:37:59;;;;;;;30.47;26.13;;;8.30;99.90;;;;;;5021760;28;20198;-79
2021/11/15 00:40:26;;;;;;;28.60;25.40;;;8.20;99.90;;;;;;5021225;28;20694;-79
2021/11/15 00:42:53;;;;;;;27.67;24.70;;;8.20;99.90;;;;;;5019724;28;20257;-79
2021/11/15 00:45:20;;;;;;;27.23;24.40;;;8.20;99.90;;;;;;5022777;28;20299;-78
2021/11/15 00:47:48;;;;;;;28.17;25.07;;;8.20;99.90;;;;;;5021523;28;20264;-78
2021/11/15 00:50:18;;;;;;;28.30;24.20;;;8.20;99.90;;;;;;5016272;28;20198;-79
2021/11/15 00:52:45;;;;;;;28.33;23.50;;;8.20;99.90;;;;;;5016595;28;20324;-79
2021/11/15 00:55:15;;;;;;;28.30;23.07;;;8.20;99.90;;;;;;5016888;28;20217;-78
2021/11/15 00:57:43;;;;;;;26.70;19.23;;;8.20;99.90;;;;;;5023187;28;20214;-79
2021/11/15 01:00:12;;;;;;;22.60;15.20;;;8.20;99.90;;;;;;5020367;28;20577;-78
2021/11/15 01:02:39;;;;;;;23.23;18.97;;;8.20;99.90;;;;;;5022430;28;20578;-78
2021/11/15 01:05:08;;;;;;;28.43;20.13;;;8.20;99.90;;;;;;5020121;28;20195;-78
2021/11/15 01:07:35;;;;;;;23.23;18.67;;;8.20;99.90;;;;;;5022729;28;20203;-79
2021/11/15 01:10:03;;;;;;;25.40;17.17;;;8.20;99.90;;;;;;5017078;28;20658;-79
2021/11/15 01:12:30;;;;;;;26.33;18.83;;;8.10;99.90;;;;;;5009722;28;20233;-79
2021/11/15 01:14:57;;;;;;;23.37;16.23;;;8.10;99.90;;;;;;5023239;28;20218;-78
2021/11/15 01:17:23;;;;;;;24.57;19.10;;;8.10;99.90;;;;;;5019083;28;20250;-79
2021/11/15 01:19:50;;;;;;;26.97;23.37;;;8.10;99.90;;;;;;5021770;28;20206;-79
2021/11/15 01:22:19;;;;;;;25.10;20.30;;;8.10;99.90;;;;;;5022823;28;20218;-78
2021/11/15 01:24:46;;;;;;;24.13;18.47;;;8.10;99.90;;;;;;5021021;28;20329;-78
2021/11/15 01:27:13;;;;;;;25.60;21.37;;;8.10;99.90;;;;;;5023243;28;20671;-79
2021/11/15 01:29:40;;;;;;;22.60;15.23;;;8.10;99.90;;;;;;5019887;28;20295;-78
2021/11/15 01:32:07;;;;;;;25.70;16.53;;;8.10;99.90;;;;;;5017369;28;20280;-78
2021/11/15 01:34:37;;;;;;;21.00;15.27;;;8.10;99.90;;;;;;5019035;28;20225;-79
2021/11/15 01:37:05;;;;;;;20.93;14.83;;;8.10;99.90;;;;;;5019234;28;20203;-79
2021/11/15 01:39:33;;;;;;;21.47;16.10;;;8.10;99.90;;;;;;5023808;28;20686;-79
2021/11/15 01:42:01;;;;;;;22.90;15.30;;;8.10;99.90;;;;;;5021337;28;20277;-79
2021/11/15 01:44:29;;;;;;;22.67;17.17;;;8.10;99.90;;;;;;5016783;28;20187;-79
2021/11/15 01:46:56;;;;;;;21.40;18.70;;;8.10;99.90;;;;;;5022984;28;20275;-79
2021/11/15 01:49:23;;;;;;;18.57;15.03;;;8.10;99.90;;;;;;5017811;28;20264;-79
2021/11/15 01:51:50;;;;;;;23.93;20.83;;;8.10;99.90;;;;;;5020756;28;20219;-79
2021/11/15 01:54:17;;;;;;;23.00;17.03;;;8.10;99.90;;;;;;5021542;28;20228;-78
2021/11/15 01:56:45;;;;;;;20.17;16.07;;;8.00;99.90;;;;;;5013295;28;20293;-79
2021/11/15 01:59:12;;;;;;;19.93;15.10;;;8.00;99.90;;;;;;5015620;28;20204;-78
2021/11/15 02:01:39;;;;;;;19.13;13.53;;;8.10;99.90;;;;;;5018268;28;20461;-78
2021/11/15 02:04:06;;;;;;;18.80;14.90;;;8.00;99.90;;;;;;5014533;28;20203;-79
2021/11/15 02:06:33;;;;;;;17.77;13.17;;;8.10;99.90;;;;;;5023509;28;20222;-78
2021/11/15 02:09:00;;;;;;;17.13;13.47;;;8.10;99.90;;;;;;5021097;28;20249;-78
2021/11/15 02:11:33;;;;;;;21.43;16.17;;;8.10;99.90;;;;;;5024617;28;20266;-79
2021/11/15 02:14:02;;;;;;;21.13;18.87;;;8.00;99.90;;;;;;5017113;28;20757;-78
2021/11/15 02:16:30;;;;;;;18.20;15.47;;;8.00;99.90;;;;;;5024573;28;20270;-78
2021/11/15 02:18:57;;;;;;;17.30;13.40;;;8.00;99.90;;;;;;5018646;28;20207;-79
2021/11/15 02:21:26;;;;;;;17.97;12.33;;;8.00;99.90;;;;;;5017067;28;20218;-78
2021/11/15 02:23:53;;;;;;;15.27;12.23;;;8.00;99.90;;;;;;5022639;28;20203;-78
2021/11/15 02:26:23;;;;;;;17.97;16.27;;;8.00;99.90;;;;;;5031235;28;20684;-77
2021/11/15 02:28:52;;;;;;;21.53;18.10;;;8.10;99.90;;;;;;5013876;28;20209;-78
2021/11/15 02:31:22;;;;;;;17.73;15.90;;;8.00;99.90;;;;;;5022375;28;20335;-78
2021/11/15 02:33:51;;;;;;;17.20;12.60;;;8.00;99.90;;;;;;5022795;28;20203;-78
2021/11/15 02:36:19;;;;;;;17.33;12.37;;;8.00;99.90;;;;;;5023148;28;20316;-78
2021/11/15 02:38:49;;;;;;;16.60;11.90;;;8.00;99.90;;;;;;5025211;28;20234;-78
2021/11/15 02:41:16;;;;;;;18.43;13.80;;;8.00;99.90;;;;;;5020408;28;20192;-78
2021/11/15 02:43:43;;;;;;;15.53;13.83;;;8.00;99.90;;;;;;5024242;28;20245;-78
2021/11/15 02:46:10;;;;;;;14.53;12.00;;;8.00;99.90;;;;;;5024663;28;20777;-80
2021/11/15 02:48:37;;;;;;;18.30;14.20;;;7.90;99.90;;;;;;5021938;28;20204;-78
2021/11/15 02:51:04;;;;;;;16.00;12.60;;;7.90;99.90;;;;;;5024840;28;20685;-78
2021/11/15 02:53:31;;;;;;;14.70;12.23;;;7.90;99.90;;;;;;5018183;28;20634;-78
2021/11/15 02:55:59;;;;;;;16.03;13.40;;;7.90;99.90;;;;;;5026732;28;20321;-79
2021/11/15 02:58:26;;;;;;;15.13;13.00;;;7.90;99.90;;;;;;5020599;28;20626;-78
2021/11/15 03:00:55;;;;;;;16.90;12.60;;;7.90;99.90;;;;;;5022539;28;20253;-79
2021/11/15 03:03:22;;;;;;;16.30;12.20;;;7.80;99.90;;;;;;5025256;28;20589;-80
2021/11/15 03:05:52;;;;;;;20.77;18.97;;;7.80;99.90;;;;;;5024216;28;20605;-78
2021/11/15 03:08:20;;;;;;;15.03;13.43;;;7.80;99.90;;;;;;5024210;28;20260;-77
2021/11/15 03:10:48;;;;;;;21.67;19.80;;;7.70;99.90;;;;;;5022916;28;20328;-79
2021/11/15 03:13:20;;;;;;;21.80;19.80;;;7.70;99.90;;;;;;5019117;28;20234;-79
2021/11/15 03:15:48;;;;;;;19.13;17.33;;;7.70;99.90;;;;;;5020049;28;20570;-79
2021/11/15 03:18:18;;;;;;;13.07;9.87;;;7.70;99.90;;;;;;5024225;28;20193;-78
2021/11/15 03:20:48;;;;;;;15.70;10.27;;;7.70;99.90;;;;;;5025309;28;20193;-78
2021/11/15 03:23:17;;;;;;;15.50;13.50;;;7.70;99.90;;;;;;5022937;28;20255;-78
2021/11/15 03:25:45;;;;;;;15.10;10.60;;;7.70;99.90;;;;;;5022629;28;20667;-78
2021/11/15 03:28:15;;;;;;;12.47;9.57;;;7.70;99.90;;;;;;5021711;28;20583;-79
2021/11/15 03:30:44;;;;;;;12.43;9.73;;;7.70;99.90;;;;;;5021257;28;20205;-78
2021/11/15 03:33:13;;;;;;;12.37;9.83;;;7.70;99.90;;;;;;5020317;28;20211;-78
2021/11/15 03:35:40;;;;;;;14.47;10.93;;;7.70;99.90;;;;;;5034275;28;20592;-79
2021/11/15 03:38:07;;;;;;;16.93;15.33;;;7.70;99.90;;;;;;5019939;28;20197;-78
2021/11/15 03:40:35;;;;;;;20.27;18.37;;;7.70;99.90;;;;;;5022110;28;20653;-80
2021/11/15 03:43:04;;;;;;;17.20;15.23;;;7.70;99.90;;;;;;5011780;28;20216;-79
2021/11/15 03:45:33;;;;;;;19.77;18.07;;;7.70;99.90;;;;;;5019573;28;20784;-78
2021/11/15 03:48:02;;;;;;;20.43;18.63;;;7.70;99.90;;;;;;5012309;28;20203;-81
2021/11/15 03:50:29;;;;;;;15.00;12.40;;;7.70;99.90;;;;;;5014862;28;20199;-79
2021/11/15 03:52:58;;;;;;;18.97;17.07;;;7.70;99.90;;;;;;5012051;28;20272;-78
2021/11/15 03:55:25;;;;;;;21.07;19.07;;;7.60;99.90;;;;;;5009249;28;20217;-79
2021/11/15 03:57:53;;;;;;;15.80;13.73;;;7.60;99.90;;;;;;4999461;28;20191;-76
2021/11/15 04:00:23;;;;;;;24.40;22.10;;;7.60;99.90;;;;;;4998797;28;20201;-78
2021/11/15 04:02:53;;;;;;;23.83;21.43;;;7.50;99.90;;;;;;5000901;28;20225;-78
2021/11/15 04:05:28;;;;;;;24.33;21.77;;;7.60;99.90;;;;;;5000727;28;20655;-77
2021/11/15 04:07:56;;;;;;;24.63;22.23;;;7.50;99.90;;;;;;5014643;28;20197;-78
2021/11/15 04:10:26;;;;;;;24.80;22.40;;;7.50;99.90;;;;;;5015191;28;20210;-77
2021/11/15 04:12:54;;;;;;;24.83;22.23;;;7.50;99.90;;;;;;5014034;28;20241;-79
2021/11/15 04:15:22;;;;;;;24.47;21.87;;;7.50;99.90;;;;;;5016962;28;20245;-78
2021/11/15 04:17:51;;;;;;;24.53;22.13;;;7.50;99.90;;;;;;5014685;28;20336;-78
2021/11/15 04:20:22;;;;;;;25.47;22.97;;;7.50;99.90;;;;;;5018805;28;20198;-78
2021/11/15 04:22:49;;;;;;;23.67;21.37;;;7.50;99.90;;;;;;5013550;28;20221;-78
2021/11/15 04:25:17;;;;;;;25.17;22.50;;;7.50;99.90;;;;;;5022147;28;20246;-78
2021/11/15 04:27:44;;;;;;;23.77;21.37;;;7.50;99.90;;;;;;5023065;28;20272;-78
2021/11/15 04:30:12;;;;;;;22.60;20.43;;;7.50;99.90;;;;;;5011830;28;20255;-79
2021/11/15 04:32:40;;;;;;;23.73;21.40;;;7.50;99.90;;;;;;5016868;28;20319;-79
2021/11/15 04:35:08;;;;;;;24.07;21.80;;;7.50;99.90;;;;;;5022091;28;20247;-79
2021/11/15 04:37:37;;;;;;;23.40;21.07;;;7.40;99.90;;;;;;5017840;28;20268;-80
2021/11/15 04:40:06;;;;;;;25.20;22.70;;;7.40;99.90;;;;;;5014561;28;20193;-81
2021/11/15 04:42:33;;;;;;;24.27;21.93;;;7.40;99.90;;;;;;5025830;28;20216;-78
2021/11/15 04:45:01;;;;;;;24.30;22.00;;;7.40;99.90;;;;;;5015550;28;20213;-81
2021/11/15 04:47:28;;;;;;;24.50;22.10;;;7.40;99.90;;;;;;5019767;28;20683;-80
2021/11/15 04:49:55;;;;;;;23.43;21.20;;;7.40;99.90;;;;;;5010759;28;20207;-79
2021/11/15 04:52:22;;;;;;;23.60;21.17;;;7.30;99.90;;;;;;5011136;28;20713;-80
2021/11/15 04:54:50;;;;;;;23.67;21.37;;;7.30;99.90;;;;;;5014228;28;20215;-80
2021/11/15 04:57:18;;;;;;;22.47;20.10;;;7.30;99.90;;;;;;5024661;28;20216;-78
2021/11/15 04:59:45;;;;;;;22.90;20.67;;;7.30;99.90;;;;;;5011215;28;20295;-80
2021/11/15 05:02:13;;;;;;;22.67;20.57;;;7.30;99.90;;;;;;5013554;28;20224;-79
2021/11/15 05:05:36;;;;;;;23.47;21.07;;;7.30;99.90;;;;;;5019981;28;20201;-80
2021/11/15 05:08:03;;;;;;;23.10;20.67;;;7.30;99.90;;;;;;5009909;28;20202;-79
2021/11/15 05:10:31;;;;;;;24.00;21.53;;;7.30;99.90;;;;;;5019896;28;20201;-81
2021/11/15 05:13:01;;;;;;;22.60;20.47;;;7.30;99.90;;;;;;5019049;28;20232;-81
2021/11/15 05:15:28;;;;;;;23.97;21.20;;;7.30;99.90;;;;;;5011548;28;20289;-81
2021/11/15 05:17:54;;;;;;;23.77;21.37;;;7.30;99.90;;;;;;5021602;28;20227;-80
2021/11/15 05:20:23;;;;;;;23.97;21.57;;;7.20;99.90;;;;;;5024912;28;20193;-80
2021/11/15 05:22:51;;;;;;;24.63;22.23;;;7.30;99.90;;;;;;4999320;28;20276;-80
2021/11/15 05:25:19;;;;;;;24.53;22.03;;;7.30;99.90;;;;;;5021645;28;20251;-80
2021/11/15 05:27:48;;;;;;;25.03;22.57;;;7.20;99.90;;;;;;5015852;28;20600;-79
2021/11/15 05:30:17;;;;;;;23.43;21.13;;;7.20;99.90;;;;;;5011884;28;20271;-79
2021/11/15 05:32:44;;;;;;;22.17;20.10;;;7.20;99.90;;;;;;5011548;28;20282;-81
2021/11/15 05:35:12;;;;;;;22.33;20.33;;;7.20;99.90;;;;;;5016947;28;20220;-81
2021/11/15 05:37:39;;;;;;;23.40;21.23;;;7.20;99.90;;;;;;5003470;28;20649;-75
2021/11/15 05:40:07;;;;;;;23.87;21.50;;;7.20;99.90;;;;;;5009212;28;20251;-78
2021/11/15 05:42:34;;;;;;;22.57;20.47;;;7.20;99.90;;;;;;5011283;28;20229;-81
2021/11/15 05:45:04;;;;;;;24.77;22.03;;;7.20;99.90;;;;;;5028822;28;20223;-80
2021/11/15 05:47:31;;;;;;;24.10;21.70;;;7.20;99.90;;;;;;5021700;28;20196;-81
2021/11/15 05:49:58;;;;;;;23.47;21.23;;;7.30;99.90;;;;;;5016855;28;20670;-81
2021/11/15 05:52:25;;;;;;;23.30;21.00;;;7.30;99.90;;;;;;5021894;28;20220;-82
2021/11/15 05:54:52;;;;;;;22.73;20.43;;;7.30;99.90;;;;;;5015916;28;20741;-82
2021/11/15 05:57:20;;;;;;;23.80;21.30;;;7.30;99.90;;;;;;5015067;28;20225;-82
2021/11/15 05:59:47;;;;;;;23.90;21.40;;;7.30;99.90;;;;;;5018657;28;20212;-80
2021/11/15 06:02:16;;;;;;;25.30;22.80;;;7.30;99.90;;;;;;5026951;28;20282;-80
2021/11/15 06:04:43;;;;;;;25.03;22.47;;;7.30;99.90;;;;;;5021564;28;20206;-81
2021/11/15 06:07:11;;;;;;;24.87;22.47;;;7.20;99.90;;;;;;5028940;28;20221;-81
2021/11/15 06:09:38;;;;;;;24.67;22.37;;;7.20;99.90;;;;;;5024574;28;20310;-81
2021/11/15 06:12:06;;;;;;;25.30;22.67;;;7.20;99.90;;;;;;5024523;28;20741;-80
2021/11/15 06:14:33;;;;;;;23.87;21.57;;;7.20;99.90;;;;;;5031280;28;20200;-79
2021/11/15 06:17:00;;;;;;;23.10;21.00;;;7.10;99.90;;;;;;5023784;28;20262;-80
2021/11/15 06:19:28;;;;;;;25.00;22.60;;;7.20;99.90;;;;;;5029148;28;20198;-79
2021/11/15 06:21:55;;;;;;;24.73;22.40;;;7.20;99.90;;;;;;5024910;28;20224;-81
2021/11/15 06:24:22;;;;;;;24.50;22.03;;;7.20;99.90;;;;;;5019331;28;20208;-80
2021/11/15 06:26:48;;;;;;;26.57;23.27;;;7.20;99.90;;;;;;5022609;28;20250;-80
2021/11/15 06:29:15;;;;;;;24.23;22.03;;;7.20;99.90;;;;;;5025284;28;20259;-80
2021/11/15 06:31:42;;;;;;;24.77;22.37;;;7.10;99.90;;;;;;5025350;28;20276;-80
2021/11/15 06:34:09;;;;;;;24.83;22.50;;;7.10;99.90;;;;;;5025647;28;20202;-81
2021/11/15 06:36:37;;;;;;;26.43;23.83;;;7.10;99.90;;;;;;5023580;28;20212;-80
2021/11/15 06:39:05;;;;;;;23.67;21.43;;;7.10;99.90;;;;;;5021273;28;20705;-80
2021/11/15 06:41:33;;;;;;;24.90;22.30;;;7.20;99.90;;;;;;5019111;28;20282;-81
2021/11/15 06:43:59;;;;;;;25.03;22.73;;;7.10;99.90;;;;;;5027171;28;20204;-80
2021/11/15 06:46:27;;;;;;;25.00;22.50;;;7.10;99.90;;;;;;5024726;28;20262;-80
2021/11/15 06:48:54;;;;;;;24.67;22.23;;;7.10;99.90;;;;;;5023643;28;20220;-80
2021/11/15 06:51:21;;;;;;;25.77;23.23;;;7.10;99.90;;;;;;5027400;28;20197;-79
2021/11/15 06:53:49;;;;;;;25.43;23.10;;;7.10;99.90;;;;;;5024212;28;20205;-80
2021/11/15 06:56:15;;;;;;;25.50;23.00;;;7.10;99.90;;;;;;5022044;28;20286;-81
2021/11/15 06:58:42;;;;;;;23.93;21.73;;;7.20;99.90;;;;;;5011709;28;20193;-80
2021/11/15 07:01:09;;;;;;;24.07;21.67;;;7.20;99.90;;;;;;5016005;28;20261;-79
2021/11/15 07:03:36;;;;;;;24.20;21.77;;;7.20;99.90;;;;;;5010221;28;20667;-80
2021/11/15 07:06:03;;;;;;;24.93;22.53;;;7.20;99.90;;;;;;5014012;28;20224;-80
2021/11/15 07:08:30;;;;;;;22.80;20.87;;;7.20;99.90;;;;;;5014229;28;20205;-80
2021/11/15 07:10:58;;;;;;;23.10;20.80;;;7.20;99.90;;;;;;5022850;28;20199;-81
2021/11/15 07:13:25;;;;;;;22.43;20.13;;;7.20;99.90;;;;;;5022017;28;20712;-80
2021/11/15 07:15:52;;;;;;;22.37;20.27;;;7.20;99.90;;;;;;5028620;28;20208;-81
2021/11/15 07:18:19;;;;;;;23.50;21.20;;;7.20;99.90;;;;;;5024016;28;20200;-80
2021/11/15 07:20:47;;;;;;;23.53;21.27;;;7.20;99.90;;;;;;5024799;28;20192;-81
2021/11/15 07:23:14;;;;;;;22.73;20.67;;;7.20;99.90;;;;;;5025301;28;20632;-81
2021/11/15 07:25:41;;;;;;;24.27;21.97;;;7.20;99.90;;;;;;5026255;28;20200;-79
2021/11/15 07:28:10;;;;;;;23.37;21.10;;;7.20;99.90;;;;;;5026100;28;20275;-80
2021/11/15 07:30:38;;;;;;;22.33;20.33;;;7.20;99.90;;;;;;5025753;28;20214;-81
2021/11/15 07:33:06;;;;;;;22.70;20.40;;;7.20;99.90;;;;;;5011288;28;20230;-81
2021/11/15 07:35:32;;;;;;;23.43;21.03;;;7.20;99.90;;;;;;5011450;28;20250;-81
2021/11/15 07:38:00;;;;;;;23.83;21.60;;;7.20;99.90;;;;;;5014061;28;20221;-81
2021/11/15 07:40:26;;;;;;;22.27;20.07;;;7.20;99.90;;;;;;5013009;28;20554;-81
2021/11/15 07:42:53;;;;;;;23.83;21.30;;;7.20;99.90;;;;;;5014437;28;20264;-80
2021/11/15 07:45:22;;;;;;;23.17;20.90;;;7.20;99.90;;;;;;5013875;28;20198;-82
2021/11/15 07:47:48;;;;;;;22.83;20.53;;;7.20;99.90;;;;;;5020162;28;20657;-80
2021/11/15 07:50:16;;;;;;;22.33;20.10;;;7.20;99.90;;;;;;5023847;28;20686;-80
2021/11/15 07:52:43;;;;;;;22.83;20.43;;;7.20;99.90;;;;;;5024886;28;20220;-82
2021/11/15 07:55:14;;;;;;;21.53;19.43;;;7.20;99.90;;;;;;5021246;28;20204;-80
2021/11/15 07:57:41;;;;;;;23.07;20.77;;;7.30;99.90;;;;;;5004642;28;20236;-80
2021/11/15 08:00:11;;;;;;;22.47;20.20;;;7.20;99.90;;;;;;4997391;28;20257;-78
2021/11/15 08:02:40;;;;;;;21.43;19.40;;;7.30;99.90;;;;;;5005867;28;20234;-81
2021/11/15 08:05:08;;;;;;;22.10;19.93;;;7.30;99.90;;;;;;5015963;28;20205;-82
2021/11/15 08:07:35;;;;;;;22.33;20.23;;;7.30;99.90;;;;;;5023918;28;20193;-79
2021/11/15 08:10:04;;;;;;;23.40;21.17;;;7.30;99.90;;;;;;5028796;28;20788;-79
2021/11/15 08:12:35;;;;;;;21.87;19.77;;;7.30;99.90;;;;;;5008574;28;20232;-80
2021/11/15 08:15:06;;;;;;;21.17;19.27;;;7.40;99.90;;;;;;5009389;28;20579;-80
2021/11/15 08:17:33;;;;;;;21.40;19.20;;;7.40;99.90;;;;;;5017017;28;20232;-80
2021/11/15 08:20:03;;;;;;;21.50;19.50;;;7.50;99.90;;;;;;5018775;28;20294;-79
2021/11/15 08:22:30;;;;;;;20.83;18.90;;;7.50;99.90;;;;;;5007687;28;20210;-81
2021/11/15 08:25:46;;;;;;;20.73;18.80;;;7.40;99.90;;;;;;5023769;28;20210;-80
2021/11/15 08:28:12;;;;;;;21.20;19.20;;;7.50;99.90;;;;;;5017669;28;20267;-82
2021/11/15 08:30:49;;;;;;;20.70;18.90;;;7.50;99.90;;;;;;5024918;28;20201;-82
2021/11/15 08:33:16;;;;;;;21.90;19.87;;;7.50;99.90;;;;;;5024208;28;20391;-81
2021/11/15 08:35:48;;;;;;;22.13;20.10;;;7.50;99.90;;;;;;5024746;28;20200;-81
2021/11/15 08:38:43;;;;;;;21.33;19.43;;;7.50;99.90;;;;;;5022692;28;20232;-81
2021/11/15 08:41:11;;;;;;;21.10;19.10;;;7.50;99.90;;;;;;5030225;28;20208;-82
2021/11/15 08:43:38;;;;;;;20.27;18.33;;;7.50;99.90;;;;;;5026953;28;20205;-82
2021/11/15 08:46:08;;;;;;;21.87;19.47;;;7.50;99.90;;;;;;5035199;28;20196;-81
2021/11/15 08:48:36;;;;;;;20.73;18.87;;;7.50;99.90;;;;;;5025361;28;20193;-80
2021/11/15 08:51:10;;;;;;;20.73;18.77;;;7.50;99.90;;;;;;5028526;28;20758;-83
2021/11/15 08:53:38;;;;;;;21.03;19.10;;;7.50;99.90;;;;;;5012952;28;20197;-81
2021/11/15 08:56:06;;;;;;;21.43;19.63;;;7.50;99.90;;;;;;5013286;28;20193;-81
2021/11/15 08:58:33;;;;;;;20.47;18.63;;;7.50;99.90;;;;;;5015525;28;20248;-80
2021/11/15 09:01:00;;;;;;;19.30;17.70;;;7.50;99.90;;;;;;5017621;28;20198;-81
2021/11/15 09:03:26;;;;;;;19.97;18.27;;;7.50;99.90;;;;;;5021844;28;20637;-81
2021/11/15 09:05:53;;;;;;;20.10;18.20;;;7.50;99.90;;;;;;5018912;28;20205;-80
2021/11/15 09:08:22;;;;;;;19.10;17.50;;;7.50;99.90;;;;;;5021411;28;20604;-83
2021/11/15 09:10:49;;;;;;;20.53;18.73;;;7.50;99.90;;;;;;5019882;28;20293;-82
2021/11/15 09:13:16;;;;;;;19.00;17.50;;;7.50;99.90;;;;;;5000996;28;20625;-81
2021/11/15 09:15:45;;;;;;;19.23;17.63;;;7.50;99.90;;;;;;5001225;28;20682;-80
2021/11/15 09:18:13;;;;;;;20.13;18.43;;;7.50;99.90;;;;;;5003220;28;20243;-81
2021/11/15 09:20:40;;;;;;;19.20;17.60;;;7.50;99.90;;;;;;5001443;28;20210;-81
2021/11/15 09:23:07;;;;;;;19.50;17.80;;;7.50;99.90;;;;;;4999801;28;20222;-83
2021/11/15 09:25:36;;;;;;;19.60;17.80;;;7.60;99.90;;;;;;5000764;28;20198;-82
2021/11/15 09:28:06;;;;;;;19.40;17.73;;;7.60;99.90;;;;;;5000648;28;20194;-80
2021/11/15 09:30:34;;;;;;;19.60;17.90;;;7.60;99.90;;;;;;5002492;28;20618;-80
2021/11/15 09:33:00;;;;;;;19.77;18.07;;;7.50;99.90;;;;;;4999545;28;20272;-80
2021/11/15 09:35:28;;;;;;;19.63;18.03;;;7.50;99.90;;;;;;4998284;28;20281;-81
2021/11/15 09:37:55;;;;;;;18.90;17.30;;;7.50;99.90;;;;;;4996827;28;20221;-80
2021/11/15 09:40:21;;;;;;;19.83;18.17;;;7.60;99.90;;;;;;4998549;28;20226;-81
2021/11/15 09:42:50;;;;;;;19.97;18.37;;;7.50;99.90;;;;;;5009793;28;20264;-81
2021/11/15 09:45:18;;;;;;;19.77;18.07;;;7.60;99.90;;;;;;5009288;28;20245;-82
2021/11/15 09:47:45;;;;;;;20.10;18.10;;;7.60;99.90;;;;;;5004966;28;20547;-81
2021/11/15 09:50:16;;;;;;;19.30;17.67;;;7.60;99.90;;;;;;5008648;28;20678;-81
2021/11/15 09:52:43;;;;;;;20.03;18.43;;;7.60;99.90;;;;;;5006391;28;20219;-81
2021/11/15 09:55:10;;;;;;;19.80;18.07;;;7.60;99.90;;;;;;5023017;28;20207;-82
2021/11/15 09:57:40;;;;;;;19.90;18.20;;;7.60;99.90;;;;;;5007145;28;20225;-80
2021/11/15 10:00:12;;;;;;;18.73;17.23;;;7.60;99.90;;;;;;5005619;28;20201;-80
2021/11/15 10:02:43;;;;;;;19.30;17.60;;;7.60;99.90;;;;;;5008982;28;20272;-81
2021/11/15 10:05:11;;;;;;;19.77;18.13;;;7.60;99.90;;;;;;5013776;28;20746;-81
2021/11/15 10:07:40;;;;;;;19.90;18.10;;;7.70;99.90;;;;;;5020790;28;20695;-80
2021/11/15 10:10:41;;;;;;;19.93;18.13;;;7.70;99.90;;;;;;5031170;28;20199;-81
2021/11/15 10:13:19;;;;;;;19.03;17.33;;;7.70;99.90;;;;;;4981101;28;20769;-82
2021/11/15 10:16:00;;;;;;;18.83;17.10;;;7.70;99.90;;;;;;4979369;28;20211;-81
2021/11/15 10:18:32;;;;;;;18.97;17.27;;;7.80;99.90;;;;;;5008017;28;20754;-81
2021/11/15 10:21:01;;;;;;;18.67;17.07;;;7.80;99.90;;;;;;5027534;28;20230;-81
2021/11/15 10:23:32;;;;;;;17.73;16.23;;;7.80;99.90;;;;;;5029318;28;20224;-81
2021/11/15 10:26:01;;;;;;;17.97;16.27;;;7.80;99.90;;;;;;5032001;28;20198;-81
2021/11/15 10:28:28;;;;;;;18.20;16.70;;;7.70;99.90;;;;;;5027766;28;20194;-81
2021/11/15 10:30:56;;;;;;;19.67;17.87;;;7.70;99.90;;;;;;5032177;28;20204;-81
2021/11/15 10:33:37;;;;;;;19.07;17.57;;;7.70;99.90;;;;;;5029481;28;20655;-83
2021/11/15 10:36:05;;;;;;;19.00;16.90;;;7.70;99.90;;;;;;5030113;28;20736;-79
2021/11/15 10:38:43;;;;;;;21.73;17.53;;;7.60;99.90;;;;;;5028309;28;20625;-80
2021/11/15 10:41:16;;;;;;;18.63;17.03;;;7.80;99.90;;;;;;5031559;28;20710;-80
2021/11/15 10:43:44;;;;;;;18.27;16.63;;;7.80;99.90;;;;;;5021715;28;20645;-79
2021/11/15 10:46:28;;;;;;;18.57;17.10;;;7.80;99.90;;;;;;5015777;28;20230;-78
2021/11/15 10:48:57;;;;;;;18.93;17.33;;;7.80;99.90;;;;;;5021791;28;20293;-79
2021/11/15 10:51:51;;;;;;;18.67;17.17;;;7.80;99.90;;;;;;5028075;28;20266;-78
2021/11/15 10:54:36;;;;;;;18.57;17.07;;;7.80;99.90;;;;;;5025061;28;20203;-81
2021/11/15 10:57:21;;;;;;;17.90;16.50;;;7.80;99.90;;;;;;5023830;28;20674;-81
2021/11/15 11:00:18;;;;;;;16.60;15.23;;;7.80;99.90;;;;;;5026054;28;20279;-79
2021/11/15 11:02:48;;;;;;;17.33;15.87;;;7.90;99.90;;;;;;4996148;28;20741;-81
2021/11/15 11:05:17;;;;;;;17.23;15.73;;;7.90;99.90;;;;;;5012662;28;20286;-83
2021/11/15 11:07:46;;;;;;;17.80;16.30;;;7.90;99.90;;;;;;5011290;28;20196;-81
2021/11/15 11:10:15;;;;;;;17.60;16.00;;;7.90;99.90;;;;;;5012289;28;20215;-80
2021/11/15 11:12:57;;;;;;;17.07;15.77;;;7.90;99.90;;;;;;5012479;28;20227;-81
2021/11/15 11:15:33;;;;;;;16.80;15.40;;;7.90;99.90;;;;;;5015110;28;20210;-79
2021/11/15 11:18:11;;;;;;;17.67;16.13;;;7.90;99.90;;;;;;5015179;28;20238;-79
2021/11/15 11:26:40;;;;;;;17.47;15.97;;;7.90;99.90;;;;;;5019023;28;20216;-79
2021/11/15 11:29:11;;;;;;;17.97;16.27;;;7.90;99.90;;;;;;5028455;28;20185;-80
2021/11/15 11:31:40;;;;;;;18.30;16.47;;;7.90;99.90;;;;;;5022255;28;20360;-80
2021/11/15 11:34:09;;;;;;;17.37;15.87;;;7.90;99.90;;;;;;5028573;28;20206;-80
2021/11/15 11:36:36;;;;;;;17.63;16.13;;;7.90;99.90;;;;;;5023256;28;20212;-79
2021/11/15 11:39:08;;;;;;;18.27;16.60;;;8.00;99.90;;;;;;5021604;28;20206;-79
2021/11/15 11:41:35;;;;;;;17.73;16.10;;;8.10;99.90;;;;;;5023225;28;20703;-80
2021/11/15 11:44:07;;;;;;;18.30;16.70;;;8.00;99.90;;;;;;5018997;28;20269;-79
2021/11/15 11:46:34;;;;;;;18.40;16.90;;;8.10;99.90;;;;;;5030596;28;20209;-79
2021/11/15 11:49:02;;;;;;;17.30;15.90;;;8.00;99.90;;;;;;5020830;28;20202;-80
2021/11/15 11:51:30;;;;;;;18.87;17.07;;;8.00;99.90;;;;;;5018405;28;20222;-79
2021/11/15 11:54:07;;;;;;;17.13;15.63;;;8.10;99.90;;;;;;5017106;28;20253;-79
2021/11/15 11:56:34;;;;;;;17.57;16.03;;;8.20;99.90;;;;;;5024629;28;20218;-79
2021/11/15 11:59:10;;;;;;;18.57;17.07;;;8.20;99.90;;;;;;5001041;28;20213;-79
2021/11/15 12:01:37;;;;;;;11.97;9.43;;;8.30;99.90;;;;;;5013375;28;20262;-80
2021/11/15 12:04:12;;;;;;;15.93;14.37;;;8.40;99.90;;;;;;4999839;28;20228;-80
2021/11/15 12:06:40;;;;;;;11.90;10.80;;;8.40;99.90;;;;;;4999047;28;20233;-79
2021/11/15 12:09:08;;;;;;;15.20;13.90;;;8.40;99.90;;;;;;5007950;28;20630;-80
2021/11/15 12:11:37;;;;;;;16.37;15.03;;;8.40;99.90;;;;;;5008899;28;20265;-79
2021/11/15 12:14:06;;;;;;;18.47;16.97;;;8.40;99.90;;;;;;5014766;28;20211;-79
2021/11/15 12:16:55;;;;;;;13.03;10.27;;;8.30;99.90;;;;;;5030139;28;20659;-79
2021/11/15 12:19:27;;;;;;;12.73;10.37;;;8.20;99.90;;;;;;5023186;28;20231;-80
2021/11/15 12:22:08;;;;;;;12.63;8.83;;;8.20;99.90;;;;;;5021260;28;20270;-79
2021/11/15 12:24:35;;;;;;;10.27;7.50;;;8.20;99.90;;;;;;5032498;28;20668;-78
2021/11/15 12:27:07;;;;;;;12.10;8.03;;;8.30;99.90;;;;;;5025966;28;20203;-79
2021/11/15 12:29:35;;;;;;;11.30;8.73;;;8.30;99.90;;;;;;5025325;28;20203;-79
2021/11/15 12:32:04;;;;;;;12.20;9.47;;;8.20;99.90;;;;;;5025519;28;20234;-80
2021/11/15 12:34:34;;;;;;;12.63;10.30;;;8.20;99.90;;;;;;5017340;28;20206;-79
2021/11/15 12:37:03;;;;;;;15.70;14.40;;;8.10;99.90;;;;;;5023633;28;20199;-79
2021/11/15 12:39:40;;;;;;;11.80;7.67;;;8.20;99.90;;;;;;5016787;28;20555;-79
2021/11/15 12:42:23;;;;;;;11.97;9.73;;;8.20;99.90;;;;;;5023017;28;20218;-79
2021/11/15 12:45:12;;;;;;;18.20;16.50;;;8.20;99.90;;;;;;5026249;28;20563;-79
2021/11/15 12:47:41;;;;;;;18.90;17.20;;;8.10;99.90;;;;;;5025010;28;20277;-79
2021/11/15 12:50:16;;;;;;;17.17;15.77;;;8.10;99.90;;;;;;5026000;28;20776;-79
2021/11/15 12:52:43;;;;;;;18.10;16.60;;;8.10;99.90;;;;;;5025917;28;20617;-79
2021/11/15 12:55:16;;;;;;;17.57;16.07;;;8.00;99.90;;;;;;5026074;28;20206;-78